sensor_id;sensor_type;location;lat;lon;timestamp;temperature;humidity
2647;DHT22;1333;50.958;6.770;2023-07-22T00:01:17;13.50;99.90
2647;DHT22;1333;50.958;6.770;2023-07-22T00:03:42;13.40;99.90
2647;DHT22;1333;50.958;6.770;2023-07-22T00:06:11;13.40;99.90
2647;DHT22;1333;50.958;6.770;2023-07-22T00:08:38;13.40;99.90
2647;DHT22;1333;50.958;6.770;2023-07-22T00:11:06;13.40;99.90
2647;DHT22;1333;50.958;6.770;2023-07-22T00:13:33;13.40;99.90
2647;DHT22;1333;50.958;6.770;2023-07-22T00:15:59;13.40;99.90
2647;DHT22;1333;50.958;6.770;2023-07-22T00:18:26;13.40;99.90
2647;DHT22;1333;50.958;6.770;2023-07-22T00:20:53;13.30;99.90
2647;DHT22;1333;50.958;6.770;2023-07-22T00:23:19;13.40;99.90
2647;DHT22;1333;50.958;6.770;2023-07-22T00:25:45;13.40;99.90
2647;DHT22;1333;50.958;6.770;2023-07-22T00:28:11;13.30;99.90
2647;DHT22;1333;50.958;6.770;2023-07-22T00:30:36;13.30;99.90
2647;DHT22;1333;50.958;6.770;2023-07-22T00:33:02;13.40;99.90
2647;DHT22;1333;50.958;6.770;2023-07-22T00:35:28;13.40;99.90
2647;DHT22;1333;50.958;6.770;2023-07-22T00:37:53;13.40;99.90
2647;DHT22;1333;50.958;6.770;2023-07-22T00:40:19;13.40;99.90
2647;DHT22;1333;50.958;6.770;2023-07-22T00:42:44;13.40;99.90
2647;DHT22;1333;50.958;6.770;2023-07-22T00:45:10;13.40;99.90
2647;DHT22;1333;50.958;6.770;2023-07-22T00:47:36;13.40;99.90
2647;DHT22;1333;50.958;6.770;2023-07-22T00:50:03;13.30;99.90
2647;DHT22;1333;50.958;6.770;2023-07-22T00:52:29;13.30;99.90
2647;DHT22;1333;50.958;6.770;2023-07-22T00:54:55;13.30;99.90
2647;DHT22;1333;50.958;6.770;2023-07-22T00:57:21;13.20;99.90
2647;DHT22;1333;50.958;6.770;2023-07-22T00:59:47;13.10;99.90
2647;DHT22;1333;50.958;6.770;2023-07-22T01:02:13;13.10;99.90
2647;DHT22;1333;50.958;6.770;2023-07-22T01:04:38;13.00;99.90
2647;DHT22;1333;50.958;6.770;2023-07-22T01:07:05;13.00;99.90
2647;DHT22;1333;50.958;6.770;2023-07-22T01:09:38;13.10;99.90
2647;DHT22;1333;50.958;6.770;2023-07-22T01:12:04;13.10;99.90
2647;DHT22;1333;50.958;6.770;2023-07-22T01:14:38;13.10;99.90
2647;DHT22;1333;50.958;6.770;2023-07-22T01:17:05;13.10;99.90
2647;DHT22;1333;50.958;6.770;2023-07-22T01:19:32;13.10;99.90
2647;DHT22;1333;50.958;6.770;2023-07-22T01:22:01;13.10;99.90
2647;DHT22;1333;50.958;6.770;2023-07-22T01:24:28;13.10;99.90
2647;DHT22;1333;50.958;6.770;2023-07-22T01:26:54;13.10;99.90
2647;DHT22;1333;50.958;6.770;2023-07-22T01:29:21;13.10;99.90
2647;DHT22;1333;50.958;6.770;2023-07-22T01:31:49;13.10;99.90
2647;DHT22;1333;50.958;6.770;2023-07-22T01:34:15;13.00;99.90
2647;DHT22;1333;50.958;6.770;2023-07-22T01:36:41;13.00;99.90
2647;DHT22;1333;50.958;6.770;2023-07-22T01:39:06;13.00;99.90
2647;DHT22;1333;50.958;6.770;2023-07-22T01:41:32;13.00;99.90
2647;DHT22;1333;50.958;6.770;2023-07-22T01:43:57;13.00;99.90
2647;DHT22;1333;50.958;6.770;2023-07-22T01:46:23;13.00;99.90
2647;DHT22;1333;50.958;6.770;2023-07-22T01:48:48;13.00;99.90
2647;DHT22;1333;50.958;6.770;2023-07-22T01:51:14;12.90;99.90
2647;DHT22;1333;50.958;6.770;2023-07-22T01:53:39;13.00;99.90
2647;DHT22;1333;50.958;6.770;2023-07-22T01:56:05;13.00;99.90
2647;DHT22;1333;50.958;6.770;2023-07-22T01:58:31;13.00;99.90
2647;DHT22;1333;50.958;6.770;2023-07-22T02:00:56;13.00;99.90
2647;DHT22;1333;50.958;6.770;2023-07-22T02:03:22;12.90;99.90
2647;DHT22;1333;50.958;6.770;2023-07-22T02:05:47;12.80;99.90
2647;DHT22;1333;50.958;6.770;2023-07-22T02:08:12;12.80;99.90
2647;DHT22;1333;50.958;6.770;2023-07-22T02:10:38;12.70;99.90
2647;DHT22;1333;50.958;6.770;2023-07-22T02:13:03;12.70;99.90
2647;DHT22;1333;50.958;6.770;2023-07-22T02:15:30;12.60;99.90
2647;DHT22;1333;50.958;6.770;2023-07-22T02:17:56;12.50;99.90
2647;DHT22;1333;50.958;6.770;2023-07-22T02:20:21;12.50;99.90
2647;DHT22;1333;50.958;6.770;2023-07-22T02:22:47;12.50;99.90
2647;DHT22;1333;50.958;6.770;2023-07-22T02:25:13;12.40;99.90
2647;DHT22;1333;50.958;6.770;2023-07-22T02:27:40;12.30;99.90
2647;DHT22;1333;50.958;6.770;2023-07-22T02:30:07;12.30;99.90
2647;DHT22;1333;50.958;6.770;2023-07-22T02:32:38;12.30;99.90
2647;DHT22;1333;50.958;6.770;2023-07-22T02:35:05;12.30;99.90
2647;DHT22;1333;50.958;6.770;2023-07-22T02:37:30;12.30;99.90
2647;DHT22;1333;50.958;6.770;2023-07-22T02:39:56;12.20;99.90
2647;DHT22;1333;50.958;6.770;2023-07-22T02:42:22;12.20;99.90
2647;DHT22;1333;50.958;6.770;2023-07-22T02:44:47;12.20;99.90
2647;DHT22;1333;50.958;6.770;2023-07-22T02:47:13;12.20;99.90
2647;DHT22;1333;50.958;6.770;2023-07-22T02:49:39;12.10;99.90
2647;DHT22;1333;50.958;6.770;2023-07-22T02:52:05;12.10;99.90
2647;DHT22;1333;50.958;6.770;2023-07-22T02:54:37;12.10;99.90
2647;DHT22;1333;50.958;6.770;2023-07-22T02:57:03;12.10;99.90
2647;DHT22;1333;50.958;6.770;2023-07-22T02:59:29;12.10;99.90
2647;DHT22;1333;50.958;6.770;2023-07-22T03:01:54;12.10;99.90
2647;DHT22;1333;50.958;6.770;2023-07-22T03:04:20;12.00;99.90
2647;DHT22;1333;50.958;6.770;2023-07-22T03:06:46;12.00;99.90
2647;DHT22;1333;50.958;6.770;2023-07-22T03:09:11;12.00;99.90
2647;DHT22;1333;50.958;6.770;2023-07-22T03:11:37;12.00;99.90
2647;DHT22;1333;50.958;6.770;2023-07-22T03:14:02;12.00;99.90
2647;DHT22;1333;50.958;6.770;2023-07-22T03:16:28;11.90;99.90
2647;DHT22;1333;50.958;6.770;2023-07-22T03:18:53;11.90;99.90
2647;DHT22;1333;50.958;6.770;2023-07-22T03:21:19;11.90;99.90
2647;DHT22;1333;50.958;6.770;2023-07-22T03:23:44;11.90;99.90
2647;DHT22;1333;50.958;6.770;2023-07-22T03:26:10;11.80;99.90
2647;DHT22;1333;50.958;6.770;2023-07-22T03:28:35;11.80;99.90
2647;DHT22;1333;50.958;6.770;2023-07-22T03:31:01;11.80;99.90
2647;DHT22;1333;50.958;6.770;2023-07-22T03:33:27;11.80;99.90
2647;DHT22;1333;50.958;6.770;2023-07-22T03:35:52;11.80;99.90
2647;DHT22;1333;50.958;6.770;2023-07-22T03:38:18;11.80;99.90
2647;DHT22;1333;50.958;6.770;2023-07-22T03:40:43;11.70;99.90
2647;DHT22;1333;50.958;6.770;2023-07-22T03:43:09;11.70;99.90
2647;DHT22;1333;50.958;6.770;2023-07-22T03:45:34;11.70;99.90
2647;DHT22;1333;50.958;6.770;2023-07-22T03:48:00;11.70;99.90
2647;DHT22;1333;50.958;6.770;2023-07-22T03:50:26;11.70;99.90
2647;DHT22;1333;50.958;6.770;2023-07-22T03:52:52;11.70;99.90
2647;DHT22;1333;50.958;6.770;2023-07-22T03:55:18;11.70;99.90
2647;DHT22;1333;50.958;6.770;2023-07-22T03:57:45;11.70;99.90
2647;DHT22;1333;50.958;6.770;2023-07-22T04:00:10;11.70;99.90
2647;DHT22;1333;50.958;6.770;2023-07-22T04:02:36;11.70;99.90
2647;DHT22;1333;50.958;6.770;2023-07-22T04:05:02;11.70;99.90
2647;DHT22;1333;50.958;6.770;2023-07-22T04:07:28;11.70;99.90
2647;DHT22;1333;50.958;6.770;2023-07-22T04:09:53;11.80;99.90
2647;DHT22;1333;50.958;6.770;2023-07-22T04:12:18;11.90;99.90
2647;DHT22;1333;50.958;6.770;2023-07-22T04:14:44;12.00;99.90
2647;DHT22;1333;50.958;6.770;2023-07-22T04:17:10;12.00;99.90
2647;DHT22;1333;50.958;6.770;2023-07-22T04:19:35;12.10;99.90
2647;DHT22;1333;50.958;6.770;2023-07-22T04:22:01;12.20;99.90
2647;DHT22;1333;50.958;6.770;2023-07-22T04:24:30;12.30;99.90
2647;DHT22;1333;50.958;6.770;2023-07-22T04:26:56;12.40;99.90
2647;DHT22;1333;50.958;6.770;2023-07-22T04:29:22;12.50;99.90
2647;DHT22;1333;50.958;6.770;2023-07-22T04:31:48;12.60;99.90
2647;DHT22;1333;50.958;6.770;2023-07-22T04:34:13;12.60;99.90
2647;DHT22;1333;50.958;6.770;2023-07-22T04:36:39;12.70;99.90
2647;DHT22;1333;50.958;6.770;2023-07-22T04:39:04;12.80;99.90
2647;DHT22;1333;50.958;6.770;2023-07-22T04:41:33;12.80;99.90
2647;DHT22;1333;50.958;6.770;2023-07-22T04:43:59;12.80;99.90
2647;DHT22;1333;50.958;6.770;2023-07-22T04:46:27;12.70;99.90
2647;DHT22;1333;50.958;6.770;2023-07-22T04:48:55;12.90;99.90
2647;DHT22;1333;50.958;6.770;2023-07-22T04:51:21;12.90;99.90
2647;DHT22;1333;50.958;6.770;2023-07-22T04:53:46;13.00;99.90
2647;DHT22;1333;50.958;6.770;2023-07-22T04:56:12;13.10;99.90
2647;DHT22;1333;50.958;6.770;2023-07-22T04:58:37;13.20;99.90
2647;DHT22;1333;50.958;6.770;2023-07-22T05:01:04;13.30;99.90
2647;DHT22;1333;50.958;6.770;2023-07-22T05:03:29;13.40;99.90
2647;DHT22;1333;50.958;6.770;2023-07-22T05:05:55;13.50;99.90
2647;DHT22;1333;50.958;6.770;2023-07-22T05:08:20;13.60;99.90
2647;DHT22;1333;50.958;6.770;2023-07-22T05:10:46;13.70;99.90
2647;DHT22;1333;50.958;6.770;2023-07-22T05:13:12;13.80;99.90
2647;DHT22;1333;50.958;6.770;2023-07-22T05:15:37;13.90;99.90
2647;DHT22;1333;50.958;6.770;2023-07-22T05:18:03;14.00;99.90
2647;DHT22;1333;50.958;6.770;2023-07-22T05:20:28;14.00;99.90
2647;DHT22;1333;50.958;6.770;2023-07-22T05:22:55;14.10;99.90
2647;DHT22;1333;50.958;6.770;2023-07-22T05:25:20;14.10;99.90
2647;DHT22;1333;50.958;6.770;2023-07-22T05:27:46;14.10;99.90
2647;DHT22;1333;50.958;6.770;2023-07-22T05:30:11;14.20;99.90
2647;DHT22;1333;50.958;6.770;2023-07-22T05:32:37;14.20;99.90
2647;DHT22;1333;50.958;6.770;2023-07-22T05:35:03;14.50;99.90
2647;DHT22;1333;50.958;6.770;2023-07-22T05:37:30;14.70;99.90
2647;DHT22;1333;50.958;6.770;2023-07-22T05:39:56;14.90;99.90
2647;DHT22;1333;50.958;6.770;2023-07-22T05:42:21;15.20;99.90
2647;DHT22;1333;50.958;6.770;2023-07-22T05:44:48;15.30;99.90
2647;DHT22;1333;50.958;6.770;2023-07-22T05:47:14;15.50;99.90
2647;DHT22;1333;50.958;6.770;2023-07-22T05:49:39;15.70;99.90
2647;DHT22;1333;50.958;6.770;2023-07-22T05:52:05;16.00;99.90
2647;DHT22;1333;50.958;6.770;2023-07-22T05:54:31;16.30;99.90
2647;DHT22;1333;50.958;6.770;2023-07-22T05:56:56;16.70;99.90
2647;DHT22;1333;50.958;6.770;2023-07-22T05:59:22;17.40;99.90
2647;DHT22;1333;50.958;6.770;2023-07-22T06:01:47;18.00;99.90
2647;DHT22;1333;50.958;6.770;2023-07-22T06:04:13;18.10;99.90
2647;DHT22;1333;50.958;6.770;2023-07-22T06:06:38;18.30;99.90
2647;DHT22;1333;50.958;6.770;2023-07-22T06:09:04;18.40;99.90
2647;DHT22;1333;50.958;6.770;2023-07-22T06:11:30;18.50;99.90
2647;DHT22;1333;50.958;6.770;2023-07-22T06:13:55;18.70;99.90
2647;DHT22;1333;50.958;6.770;2023-07-22T06:16:21;19.00;99.90
2647;DHT22;1333;50.958;6.770;2023-07-22T06:18:47;19.20;99.90
2647;DHT22;1333;50.958;6.770;2023-07-22T06:21:12;19.60;99.90
2647;DHT22;1333;50.958;6.770;2023-07-22T06:23:38;19.80;99.90
2647;DHT22;1333;50.958;6.770;2023-07-22T06:26:03;19.80;99.90
2647;DHT22;1333;50.958;6.770;2023-07-22T06:28:29;20.10;99.90
2647;DHT22;1333;50.958;6.770;2023-07-22T06:30:54;20.60;99.90
2647;DHT22;1333;50.958;6.770;2023-07-22T06:33:20;20.90;99.90
2647;DHT22;1333;50.958;6.770;2023-07-22T06:35:46;20.90;99.90
2647;DHT22;1333;50.958;6.770;2023-07-22T06:38:11;20.90;99.90
2647;DHT22;1333;50.958;6.770;2023-07-22T06:40:36;20.90;99.90
2647;DHT22;1333;50.958;6.770;2023-07-22T06:43:02;20.90;99.50
2647;DHT22;1333;50.958;6.770;2023-07-22T06:45:27;20.90;97.80
2647;DHT22;1333;50.958;6.770;2023-07-22T06:47:53;20.60;96.00
2647;DHT22;1333;50.958;6.770;2023-07-22T06:50:19;20.60;98.00
2647;DHT22;1333;50.958;6.770;2023-07-22T06:52:44;20.50;98.50
2647;DHT22;1333;50.958;6.770;2023-07-22T06:55:10;20.50;97.90
2647;DHT22;1333;50.958;6.770;2023-07-22T06:57:35;20.50;98.40
2647;DHT22;1333;50.958;6.770;2023-07-22T07:00:01;20.70;99.80
2647;DHT22;1333;50.958;6.770;2023-07-22T07:02:26;20.90;99.20
2647;DHT22;1333;50.958;6.770;2023-07-22T07:04:52;21.10;98.30
2647;DHT22;1333;50.958;6.770;2023-07-22T07:07:17;21.10;97.90
2647;DHT22;1333;50.958;6.770;2023-07-22T07:09:43;21.00;96.90
2647;DHT22;1333;50.958;6.770;2023-07-22T07:12:09;20.80;96.70
2647;DHT22;1333;50.958;6.770;2023-07-22T07:14:35;20.80;98.30
2647;DHT22;1333;50.958;6.770;2023-07-22T07:17:01;20.80;98.90
2647;DHT22;1333;50.958;6.770;2023-07-22T07:19:27;20.80;99.70
2647;DHT22;1333;50.958;6.770;2023-07-22T07:21:53;20.80;99.90
2647;DHT22;1333;50.958;6.770;2023-07-22T07:24:18;20.80;99.30
2647;DHT22;1333;50.958;6.770;2023-07-22T07:26:44;20.80;99.90
2647;DHT22;1333;50.958;6.770;2023-07-22T07:29:10;20.80;99.90
2647;DHT22;1333;50.958;6.770;2023-07-22T07:31:37;21.00;99.90
2647;DHT22;1333;50.958;6.770;2023-07-22T07:34:03;21.10;99.90
2647;DHT22;1333;50.958;6.770;2023-07-22T07:36:28;21.20;99.90
2647;DHT22;1333;50.958;6.770;2023-07-22T07:38:54;21.40;99.90
2647;DHT22;1333;50.958;6.770;2023-07-22T07:41:21;21.60;99.90
2647;DHT22;1333;50.958;6.770;2023-07-22T07:43:46;21.90;99.90
2647;DHT22;1333;50.958;6.770;2023-07-22T07:46:15;22.20;97.20
2647;DHT22;1333;50.958;6.770;2023-07-22T07:48:43;22.60;96.20
2647;DHT22;1333;50.958;6.770;2023-07-22T07:51:08;23.40;94.40
2647;DHT22;1333;50.958;6.770;2023-07-22T07:53:34;24.10;89.30
2647;DHT22;1333;50.958;6.770;2023-07-22T07:56:00;24.60;85.20
2647;DHT22;1333;50.958;6.770;2023-07-22T07:58:25;25.10;78.40
2647;DHT22;1333;50.958;6.770;2023-07-22T08:00:51;25.60;70.80
2647;DHT22;1333;50.958;6.770;2023-07-22T08:03:16;26.40;67.90
2647;DHT22;1333;50.958;6.770;2023-07-22T08:05:42;28.50;63.40
2647;DHT22;1333;50.958;6.770;2023-07-22T08:08:07;31.00;56.30
2647;DHT22;1333;50.958;6.770;2023-07-22T08:10:33;33.40;49.10
2647;DHT22;1333;50.958;6.770;2023-07-22T08:12:58;35.00;45.20
2647;DHT22;1333;50.958;6.770;2023-07-22T08:15:24;35.90;38.20
2647;DHT22;1333;50.958;6.770;2023-07-22T08:17:50;36.00;34.00
2647;DHT22;1333;50.958;6.770;2023-07-22T08:20:15;37.40;34.50
2647;DHT22;1333;50.958;6.770;2023-07-22T08:22:41;38.50;30.20
2647;DHT22;1333;50.958;6.770;2023-07-22T08:25:07;39.10;29.70
2647;DHT22;1333;50.958;6.770;2023-07-22T08:27:32;39.10;27.60
2647;DHT22;1333;50.958;6.770;2023-07-22T08:29:58;39.00;27.00
2647;DHT22;1333;50.958;6.770;2023-07-22T08:32:23;39.90;28.10
2647;DHT22;1333;50.958;6.770;2023-07-22T08:34:49;40.50;27.10
2647;DHT22;1333;50.958;6.770;2023-07-22T08:37:14;40.90;26.70
2647;DHT22;1333;50.958;6.770;2023-07-22T08:39:40;40.90;24.80
2647;DHT22;1333;50.958;6.770;2023-07-22T08:42:06;40.60;25.60
2647;DHT22;1333;50.958;6.770;2023-07-22T08:44:33;40.70;26.30
2647;DHT22;1333;50.958;6.770;2023-07-22T08:47:00;40.30;25.00
2647;DHT22;1333;50.958;6.770;2023-07-22T08:49:29;39.20;25.90
2647;DHT22;1333;50.958;6.770;2023-07-22T08:51:55;38.60;25.80
2647;DHT22;1333;50.958;6.770;2023-07-22T08:54:22;38.10;25.40
2647;DHT22;1333;50.958;6.770;2023-07-22T08:56:49;38.10;26.20
2647;DHT22;1333;50.958;6.770;2023-07-22T08:59:17;37.60;25.50
2647;DHT22;1333;50.958;6.770;2023-07-22T09:01:43;37.20;25.80
2647;DHT22;1333;50.958;6.770;2023-07-22T09:04:09;37.00;26.20
2647;DHT22;1333;50.958;6.770;2023-07-22T09:06:35;36.90;26.00
2647;DHT22;1333;50.958;6.770;2023-07-22T09:09:02;36.60;26.70
2647;DHT22;1333;50.958;6.770;2023-07-22T09:11:33;37.20;26.00
2647;DHT22;1333;50.958;6.770;2023-07-22T09:14:00;37.80;26.10
2647;DHT22;1333;50.958;6.770;2023-07-22T09:16:27;37.50;25.50
2647;DHT22;1333;50.958;6.770;2023-07-22T09:18:55;37.80;26.00
2647;DHT22;1333;50.958;6.770;2023-07-22T09:21:21;37.70;25.50
2647;DHT22;1333;50.958;6.770;2023-07-22T09:23:46;37.80;26.30
2647;DHT22;1333;50.958;6.770;2023-07-22T09:26:14;36.60;25.30
2647;DHT22;1333;50.958;6.770;2023-07-22T09:31:18;36.20;27.20
2647;DHT22;1333;50.958;6.770;2023-07-22T09:33:44;36.70;26.10
2647;DHT22;1333;50.958;6.770;2023-07-22T09:36:10;37.70;25.70
2647;DHT22;1333;50.958;6.770;2023-07-22T09:38:39;38.60;26.10
2647;DHT22;1333;50.958;6.770;2023-07-22T09:41:05;39.30;24.40
2647;DHT22;1333;50.958;6.770;2023-07-22T09:43:31;38.90;24.50
2647;DHT22;1333;50.958;6.770;2023-07-22T09:46:08;38.10;24.10
2647;DHT22;1333;50.958;6.770;2023-07-22T09:48:44;37.30;24.90
2647;DHT22;1333;50.958;6.770;2023-07-22T09:51:14;36.50;25.10
2647;DHT22;1333;50.958;6.770;2023-07-22T09:53:47;36.20;25.90
2647;DHT22;1333;50.958;6.770;2023-07-22T09:56:13;35.60;25.80
2647;DHT22;1333;50.958;6.770;2023-07-22T09:58:39;34.60;26.20
2647;DHT22;1333;50.958;6.770;2023-07-22T10:01:05;34.40;26.50
2647;DHT22;1333;50.958;6.770;2023-07-22T10:03:32;33.90;26.50
2647;DHT22;1333;50.958;6.770;2023-07-22T10:06:00;34.00;26.90
2647;DHT22;1333;50.958;6.770;2023-07-22T10:08:30;34.90;26.10
2647;DHT22;1333;50.958;6.770;2023-07-22T10:10:59;36.20;25.60
2647;DHT22;1333;50.958;6.770;2023-07-22T10:13:27;37.40;24.70
2647;DHT22;1333;50.958;6.770;2023-07-22T10:15:52;38.50;24.10
2647;DHT22;1333;50.958;6.770;2023-07-22T10:18:18;38.20;23.10
2647;DHT22;1333;50.958;6.770;2023-07-22T10:20:46;38.30;24.10
2647;DHT22;1333;50.958;6.770;2023-07-22T10:23:13;38.80;24.40
2647;DHT22;1333;50.958;6.770;2023-07-22T10:25:39;38.90;22.90
2647;DHT22;1333;50.958;6.770;2023-07-22T10:28:06;38.50;22.70
2647;DHT22;1333;50.958;6.770;2023-07-22T10:30:32;38.30;24.00
2647;DHT22;1333;50.958;6.770;2023-07-22T10:32:58;38.30;24.60
2647;DHT22;1333;50.958;6.770;2023-07-22T10:37:55;39.90;23.40
2647;DHT22;1333;50.958;6.770;2023-07-22T10:40:25;41.30;22.30
2647;DHT22;1333;50.958;6.770;2023-07-22T10:42:53;42.40;21.30
2647;DHT22;1333;50.958;6.770;2023-07-22T10:45:30;43.60;21.30
2647;DHT22;1333;50.958;6.770;2023-07-22T10:48:07;44.80;19.70
2647;DHT22;1333;50.958;6.770;2023-07-22T10:50:44;44.90;19.10
2647;DHT22;1333;50.958;6.770;2023-07-22T10:58:55;46.30;19.00
2647;DHT22;1333;50.958;6.770;2023-07-22T11:14:27;49.40;16.60
2647;DHT22;1333;50.958;6.770;2023-07-22T11:16:53;48.30;16.90
2647;DHT22;1333;50.958;6.770;2023-07-22T11:19:23;47.40;17.10
2647;DHT22;1333;50.958;6.770;2023-07-22T11:21:50;47.00;17.70
2647;DHT22;1333;50.958;6.770;2023-07-22T11:24:17;46.80;17.00
2647;DHT22;1333;50.958;6.770;2023-07-22T11:26:43;46.60;17.30
2647;DHT22;1333;50.958;6.770;2023-07-22T11:29:10;47.20;17.50
2647;DHT22;1333;50.958;6.770;2023-07-22T11:31:37;49.10;18.00
2647;DHT22;1333;50.958;6.770;2023-07-22T11:34:04;50.90;18.00
2647;DHT22;1333;50.958;6.770;2023-07-22T11:36:30;52.30;17.10
2647;DHT22;1333;50.958;6.770;2023-07-22T11:39:26;51.90;16.50
2647;DHT22;1333;50.958;6.770;2023-07-22T11:41:52;51.20;16.00
2647;DHT22;1333;50.958;6.770;2023-07-22T11:44:20;51.00;16.40
2647;DHT22;1333;50.958;6.770;2023-07-22T11:47:03;50.60;16.80
2647;DHT22;1333;50.958;6.770;2023-07-22T11:49:40;50.90;15.90
2647;DHT22;1333;50.958;6.770;2023-07-22T11:52:08;51.30;16.00
2647;DHT22;1333;50.958;6.770;2023-07-22T11:54:38;51.50;16.00
2647;DHT22;1333;50.958;6.770;2023-07-22T11:57:17;51.70;15.90
2647;DHT22;1333;50.958;6.770;2023-07-22T11:59:47;51.30;15.00
2647;DHT22;1333;50.958;6.770;2023-07-22T12:02:15;51.50;14.90
2647;DHT22;1333;50.958;6.770;2023-07-22T12:04:42;50.60;15.50
2647;DHT22;1333;50.958;6.770;2023-07-22T12:07:24;50.90;16.30
2647;DHT22;1333;50.958;6.770;2023-07-22T12:09:51;50.70;15.10
2647;DHT22;1333;50.958;6.770;2023-07-22T12:12:17;50.00;14.80
2647;DHT22;1333;50.958;6.770;2023-07-22T12:14:43;49.70;15.20
2647;DHT22;1333;50.958;6.770;2023-07-22T12:17:09;49.50;15.20
2647;DHT22;1333;50.958;6.770;2023-07-22T12:19:35;48.70;15.10
2647;DHT22;1333;50.958;6.770;2023-07-22T12:22:01;48.00;15.20
2647;DHT22;1333;50.958;6.770;2023-07-22T12:24:27;47.40;16.00
2647;DHT22;1333;50.958;6.770;2023-07-22T12:26:53;47.20;16.00
2647;DHT22;1333;50.958;6.770;2023-07-22T12:29:19;46.40;15.80
2647;DHT22;1333;50.958;6.770;2023-07-22T12:31:44;46.90;16.70
2647;DHT22;1333;50.958;6.770;2023-07-22T12:34:10;47.20;15.80
2647;DHT22;1333;50.958;6.770;2023-07-22T12:36:35;47.20;16.20
2647;DHT22;1333;50.958;6.770;2023-07-22T12:39:01;46.30;15.00
2647;DHT22;1333;50.958;6.770;2023-07-22T12:41:26;46.30;15.90
2647;DHT22;1333;50.958;6.770;2023-07-22T12:43:52;46.80;16.00
2647;DHT22;1333;50.958;6.770;2023-07-22T12:46:18;47.20;15.50
2647;DHT22;1333;50.958;6.770;2023-07-22T12:48:43;46.80;15.10
2647;DHT22;1333;50.958;6.770;2023-07-22T12:51:09;45.50;15.30
2647;DHT22;1333;50.958;6.770;2023-07-22T12:53:35;45.30;15.90
2647;DHT22;1333;50.958;6.770;2023-07-22T12:56:00;44.60;15.60
2647;DHT22;1333;50.958;6.770;2023-07-22T12:58:28;44.00;15.70
2647;DHT22;1333;50.958;6.770;2023-07-22T13:00:54;44.30;16.50
2647;DHT22;1333;50.958;6.770;2023-07-22T13:03:20;44.80;16.70
2647;DHT22;1333;50.958;6.770;2023-07-22T13:05:46;45.60;17.30
2647;DHT22;1333;50.958;6.770;2023-07-22T13:08:11;46.20;16.60
2647;DHT22;1333;50.958;6.770;2023-07-22T13:10:37;45.20;15.60
2647;DHT22;1333;50.958;6.770;2023-07-22T13:13:04;45.00;16.30
2647;DHT22;1333;50.958;6.770;2023-07-22T13:15:31;45.30;17.00
2647;DHT22;1333;50.958;6.770;2023-07-22T13:17:57;45.60;16.80
2647;DHT22;1333;50.958;6.770;2023-07-22T13:20:22;45.70;16.30
2647;DHT22;1333;50.958;6.770;2023-07-22T13:22:48;45.60;16.40
2647;DHT22;1333;50.958;6.770;2023-07-22T13:25:13;45.30;16.70
2647;DHT22;1333;50.958;6.770;2023-07-22T13:27:39;44.30;16.40
2647;DHT22;1333;50.958;6.770;2023-07-22T13:30:07;42.60;16.50
2647;DHT22;1333;50.958;6.770;2023-07-22T13:32:32;41.20;17.60
2647;DHT22;1333;50.958;6.770;2023-07-22T13:34:58;40.00;18.50
2647;DHT22;1333;50.958;6.770;2023-07-22T13:37:24;39.00;20.10
2647;DHT22;1333;50.958;6.770;2023-07-22T13:39:49;38.00;21.40
2647;DHT22;1333;50.958;6.770;2023-07-22T13:42:14;37.20;22.10
2647;DHT22;1333;50.958;6.770;2023-07-22T13:44:40;36.20;21.30
2647;DHT22;1333;50.958;6.770;2023-07-22T13:47:05;35.00;21.10
2647;DHT22;1333;50.958;6.770;2023-07-22T13:49:31;34.30;22.70
2647;DHT22;1333;50.958;6.770;2023-07-22T13:51:56;34.00;23.70
2647;DHT22;1333;50.958;6.770;2023-07-22T13:54:22;33.60;23.70
2647;DHT22;1333;50.958;6.770;2023-07-22T13:56:47;33.40;24.10
2647;DHT22;1333;50.958;6.770;2023-07-22T13:59:14;33.10;25.00
2647;DHT22;1333;50.958;6.770;2023-07-22T14:01:39;32.90;24.90
2647;DHT22;1333;50.958;6.770;2023-07-22T14:04:05;32.60;25.50
2647;DHT22;1333;50.958;6.770;2023-07-22T14:06:31;32.00;24.30
2647;DHT22;1333;50.958;6.770;2023-07-22T14:08:58;31.40;25.20
2647;DHT22;1333;50.958;6.770;2023-07-22T14:11:23;30.80;25.50
2647;DHT22;1333;50.958;6.770;2023-07-22T14:13:49;30.50;26.10
2647;DHT22;1333;50.958;6.770;2023-07-22T14:16:17;30.30;26.40
2647;DHT22;1333;50.958;6.770;2023-07-22T14:18:42;30.20;27.00
2647;DHT22;1333;50.958;6.770;2023-07-22T14:21:08;30.20;27.80
2647;DHT22;1333;50.958;6.770;2023-07-22T14:23:36;30.30;28.50
2647;DHT22;1333;50.958;6.770;2023-07-22T14:26:02;30.30;27.80
2647;DHT22;1333;50.958;6.770;2023-07-22T14:28:27;30.30;27.50
2647;DHT22;1333;50.958;6.770;2023-07-22T14:30:53;29.60;26.60
2647;DHT22;1333;50.958;6.770;2023-07-22T14:33:18;29.30;27.40
2647;DHT22;1333;50.958;6.770;2023-07-22T14:35:44;29.30;27.80
2647;DHT22;1333;50.958;6.770;2023-07-22T14:38:10;29.30;28.40
2647;DHT22;1333;50.958;6.770;2023-07-22T14:40:36;29.10;27.40
2647;DHT22;1333;50.958;6.770;2023-07-22T14:43:02;28.90;28.00
2647;DHT22;1333;50.958;6.770;2023-07-22T14:45:27;28.70;27.80
2647;DHT22;1333;50.958;6.770;2023-07-22T14:47:53;28.30;27.60
2647;DHT22;1333;50.958;6.770;2023-07-22T14:50:18;28.30;28.80
2647;DHT22;1333;50.958;6.770;2023-07-22T14:52:44;28.10;28.40
2647;DHT22;1333;50.958;6.770;2023-07-22T14:55:09;28.00;28.80
2647;DHT22;1333;50.958;6.770;2023-07-22T14:57:35;28.10;28.90
2647;DHT22;1333;50.958;6.770;2023-07-22T15:00:00;28.20;29.20
2647;DHT22;1333;50.958;6.770;2023-07-22T15:02:26;28.40;29.50
2647;DHT22;1333;50.958;6.770;2023-07-22T15:04:51;28.30;28.90
2647;DHT22;1333;50.958;6.770;2023-07-22T15:07:17;28.30;28.80
2647;DHT22;1333;50.958;6.770;2023-07-22T15:09:42;28.30;28.90
2647;DHT22;1333;50.958;6.770;2023-07-22T15:12:08;28.30;29.10
2647;DHT22;1333;50.958;6.770;2023-07-22T15:14:35;28.00;29.10
2647;DHT22;1333;50.958;6.770;2023-07-22T15:17:01;27.80;29.50
2647;DHT22;1333;50.958;6.770;2023-07-22T15:19:26;27.90;30.30
2647;DHT22;1333;50.958;6.770;2023-07-22T15:21:52;27.90;30.70
2647;DHT22;1333;50.958;6.770;2023-07-22T15:24:18;28.00;30.90
2647;DHT22;1333;50.958;6.770;2023-07-22T15:26:43;28.10;30.70
2647;DHT22;1333;50.958;6.770;2023-07-22T15:29:09;28.20;31.00
2647;DHT22;1333;50.958;6.770;2023-07-22T15:31:34;28.40;30.80
2647;DHT22;1333;50.958;6.770;2023-07-22T15:34:00;28.40;30.40
2647;DHT22;1333;50.958;6.770;2023-07-22T15:36:25;28.20;30.00
2647;DHT22;1333;50.958;6.770;2023-07-22T15:38:51;27.90;30.00
2647;DHT22;1333;50.958;6.770;2023-07-22T15:41:16;27.90;30.40
2647;DHT22;1333;50.958;6.770;2023-07-22T15:43:42;27.50;30.00
2647;DHT22;1333;50.958;6.770;2023-07-22T15:46:08;27.40;30.70
2647;DHT22;1333;50.958;6.770;2023-07-22T15:48:33;27.30;30.90
2647;DHT22;1333;50.958;6.770;2023-07-22T15:50:59;27.10;30.90
2647;DHT22;1333;50.958;6.770;2023-07-22T15:53:24;27.10;31.40
2647;DHT22;1333;50.958;6.770;2023-07-22T15:55:50;27.10;31.70
2647;DHT22;1333;50.958;6.770;2023-07-22T15:58:16;27.20;32.00
2647;DHT22;1333;50.958;6.770;2023-07-22T16:00:42;27.30;31.70
2647;DHT22;1333;50.958;6.770;2023-07-22T16:03:08;27.40;31.70
2647;DHT22;1333;50.958;6.770;2023-07-22T16:05:35;27.20;30.80
2647;DHT22;1333;50.958;6.770;2023-07-22T16:08:00;27.30;31.60
2647;DHT22;1333;50.958;6.770;2023-07-22T16:10:26;27.40;32.00
2647;DHT22;1333;50.958;6.770;2023-07-22T16:12:52;27.60;32.00
2647;DHT22;1333;50.958;6.770;2023-07-22T16:15:18;27.50;31.40
2647;DHT22;1333;50.958;6.770;2023-07-22T16:17:44;27.50;31.60
2647;DHT22;1333;50.958;6.770;2023-07-22T16:20:10;27.40;31.60